Terminal Aerodrome Forecast
Issued by NWS Grand Forks, ND

Home | Current Version | Previous Version | Graphics & Text | Print | Product List | Glossary On
Versions: 1 2 3 4 5 6 7 8 9 10 11 12 13 14 15 16
250
FTUS43 KFGF 242325
TAFGFK
TAF
KGFK 242325Z 2500/2524 14017KT P6SM BKN035 OVC040
     FM250100 15015KT P6SM VCSH OVC035
     FM250400 15011KT P6SM BKN025
     FM250600 16008KT P6SM BKN080
     FM251500 27015KT P6SM VCSH OVC015
     FM251800 30022G30KT P6SM VCSH OVC025=

USA.gov is the U.S. government's official web portal to all federal, state and local government web resources and services.